SNDZ weather

CLOSED Via Brasil Heliport
Belo Horizonte, Minas Gerais, Brazil

Public forecast

Using degrees Celsius for public forecast. Weather courtesy of forecast.io.

Closest aviation weather report (METAR) to Via Brasil Heliport

Closest report is Pampulha - Carlos Drummond de Andrade Airport, 1.0 nm (1.9 km) ESE. Retrieved 2020/08/04 10:00 UTC (1 hour ago):

SBBH 041000Z 00000KT CAVOK 09/08 Q1029

Closest aviation forecast (TAF) to Via Brasil Heliport

Forecast is more than 12 hours old.

Closest forecast is Pampulha - Carlos Drummond de Andrade Airport, 1.0 nm (1.9 km) ESE. Retrieved 2012/03/26 18:12 UTC (8 years ago):

TAF SBBH 261639Z 2618/2706 09005KT 9999 SCT030 TX28/2618Z TN20/2705Z PROB30 2619/2624 8000 TSRA BKN035 FEW045CB RMK PGG